createdAt,value
2023-03-06T00:02:20.651Z,1.95
2023-03-06T00:04:47.405Z,1.93
2023-03-06T00:07:13.916Z,1.82
2023-03-06T00:09:40.339Z,1.85
2023-03-06T00:12:07.431Z,1.94
2023-03-06T00:14:33.954Z,1.96
2023-03-06T00:17:00.369Z,1.97
2023-03-06T00:19:27.893Z,2.11
2023-03-06T00:21:54.824Z,2.22
2023-03-06T00:24:21.338Z,2.17
2023-03-06T00:26:47.770Z,2.34
2023-03-06T00:29:14.250Z,2.39
2023-03-06T00:31:40.865Z,2.33
2023-03-06T00:34:07.365Z,2.44
2023-03-06T00:36:33.808Z,2.43
2023-03-06T00:39:00.249Z,2.35
2023-03-06T00:41:27.136Z,2.44
2023-03-06T00:43:53.599Z,2.41
2023-03-06T00:46:21.418Z,2.35
2023-03-06T00:48:47.824Z,2.30
2023-03-06T00:51:14.235Z,2.17
2023-03-06T00:53:40.672Z,2.12
2023-03-06T00:56:09.096Z,1.93
2023-03-06T00:58:37.238Z,1.67
2023-03-06T01:01:04.283Z,1.73
2023-03-06T01:03:30.988Z,1.66
2023-03-06T01:05:57.884Z,1.63
2023-03-06T01:08:24.437Z,1.55
2023-03-06T01:10:50.941Z,1.53
2023-03-06T01:13:17.411Z,1.44
2023-03-06T01:15:43.825Z,1.47
2023-03-06T01:18:11.337Z,1.39
2023-03-06T01:20:38.121Z,1.39
2023-03-06T01:23:04.576Z,1.58
2023-03-06T01:25:31.097Z,1.70
2023-03-06T01:27:57.546Z,1.77
2023-03-06T01:30:23.959Z,1.88
2023-03-06T01:32:50.466Z,1.84
2023-03-06T01:35:17.276Z,2.06
2023-03-06T01:37:43.823Z,2.07
2023-03-06T01:40:11.986Z,2.09
2023-03-06T01:42:38.764Z,2.00
2023-03-06T01:45:13.829Z,2.03
2023-03-06T01:47:40.427Z,2.03
2023-03-06T01:50:09.593Z,1.85
2023-03-06T01:52:46.131Z,1.91
2023-03-06T01:55:26.169Z,1.96
2023-03-06T01:57:57.580Z,1.84
2023-03-06T02:00:27.325Z,1.88
2023-03-06T02:03:03.837Z,1.75
2023-03-06T02:05:30.453Z,1.74
2023-03-06T02:07:57.714Z,1.73
2023-03-06T02:10:24.901Z,1.76
2023-03-06T02:12:52.076Z,1.71
2023-03-06T02:15:22.143Z,1.71
2023-03-06T02:17:50.712Z,1.69
2023-03-06T02:20:29.707Z,1.52
2023-03-06T02:23:11.464Z,1.47
2023-03-06T02:25:41.292Z,1.37
2023-03-06T02:28:11.653Z,1.35
2023-03-06T02:30:39.018Z,1.15
2023-03-06T02:33:06.073Z,1.10
2023-03-06T02:35:35.030Z,1.11
2023-03-06T02:38:09.199Z,1.03
2023-03-06T02:40:36.627Z,1.08
2023-03-06T02:43:03.403Z,1.08
2023-03-06T02:45:37.658Z,1.10
2023-03-06T02:48:04.945Z,1.06
2023-03-06T02:50:32.151Z,1.11
2023-03-06T02:52:58.844Z,1.10
2023-03-06T02:55:25.362Z,1.05
2023-03-06T02:57:51.886Z,1.08
2023-03-06T03:00:19.214Z,1.17
2023-03-06T03:02:45.797Z,1.20
2023-03-06T03:05:12.345Z,1.10
2023-03-06T03:07:38.780Z,1.20
2023-03-06T03:10:05.686Z,1.01
2023-03-06T03:12:32.725Z,0.91
2023-03-06T03:14:59.306Z,1.14
2023-03-06T03:17:25.806Z,1.12
2023-03-06T03:19:52.241Z,1.02
2023-03-06T03:22:19.376Z,1.09
2023-03-06T03:24:46.741Z,1.04
2023-03-06T03:27:13.818Z,0.97
2023-03-06T03:29:41.417Z,1.04
2023-03-06T03:32:08.251Z,1.02
2023-03-06T03:34:35.094Z,1.02
2023-03-06T03:37:01.655Z,0.94
2023-03-06T03:39:28.214Z,0.96
2023-03-06T03:41:54.829Z,0.84
2023-03-06T03:44:21.463Z,0.91
2023-03-06T03:46:48.028Z,0.88
2023-03-06T03:49:15.018Z,0.79
2023-03-06T03:51:41.564Z,0.87
2023-03-06T03:54:07.988Z,0.96
2023-03-06T03:56:34.605Z,1.02
2023-03-06T03:59:01.106Z,1.04
2023-03-06T04:01:27.699Z,1.02
2023-03-06T04:03:54.427Z,1.04
2023-03-06T04:06:20.998Z,0.96
2023-03-06T04:08:47.407Z,1.01
2023-03-06T04:11:13.829Z,1.09
2023-03-06T04:13:40.386Z,1.06
2023-03-06T04:16:07.257Z,0.99
2023-03-06T04:18:33.829Z,0.98
2023-03-06T04:21:00.299Z,0.93
2023-03-06T04:23:27.810Z,1.03
2023-03-06T04:25:54.309Z,1.05
2023-03-06T04:28:21.041Z,0.98
2023-03-06T04:30:49.911Z,0.97
2023-03-06T04:33:16.719Z,1.00
2023-03-06T04:35:43.265Z,1.08
2023-03-06T04:38:09.806Z,1.00
2023-03-06T04:40:36.477Z,1.01
2023-03-06T04:43:04.091Z,1.07
2023-03-06T04:45:31.629Z,1.03
2023-03-06T04:47:59.128Z,1.02
2023-03-06T04:50:28.335Z,1.11
2023-03-06T04:52:54.833Z,1.11
2023-03-06T04:55:21.255Z,1.06
2023-03-06T04:57:47.969Z,1.18
2023-03-06T05:00:22.999Z,1.09
2023-03-06T05:02:50.447Z,1.13
2023-03-06T05:05:18.230Z,1.15
2023-03-06T05:07:44.970Z,1.20
2023-03-06T05:10:15.301Z,1.14
2023-03-06T05:12:42.258Z,1.18
2023-03-06T05:15:10.686Z,1.00
2023-03-06T05:17:38.161Z,1.00
2023-03-06T05:20:07.618Z,1.15
2023-03-06T05:22:34.739Z,1.14
2023-03-06T05:25:01.517Z,1.11
2023-03-06T05:27:28.462Z,1.12
2023-03-06T05:29:55.015Z,1.16
2023-03-06T05:32:22.368Z,1.13
2023-03-06T05:34:49.072Z,1.04
2023-03-06T05:37:15.590Z,1.14
2023-03-06T05:39:42.670Z,1.06
2023-03-06T05:42:09.105Z,1.21
2023-03-06T05:44:36.353Z,1.11
2023-03-06T05:47:02.843Z,1.06
2023-03-06T05:49:33.979Z,1.11
2023-03-06T05:52:05.824Z,1.16
2023-03-06T05:54:33.624Z,0.90
2023-03-06T05:57:00.156Z,1.08
2023-03-06T05:59:28.479Z,1.11
2023-03-06T06:01:56.050Z,1.24
2023-03-06T06:04:23.889Z,1.24
2023-03-06T06:06:56.191Z,1.29
2023-03-06T06:09:23.354Z,1.35
2023-03-06T06:11:54.422Z,1.28
2023-03-06T06:14:21.428Z,1.32
2023-03-06T06:16:48.456Z,1.25
2023-03-06T06:19:18.732Z,1.21
2023-03-06T06:21:47.784Z,1.27
2023-03-06T06:24:15.931Z,1.24
2023-03-06T06:26:42.899Z,1.25
2023-03-06T06:29:10.539Z,1.32
2023-03-06T06:31:37.615Z,1.28
2023-03-06T06:34:06.448Z,1.33
2023-03-06T06:36:33.622Z,1.31
2023-03-06T06:39:00.389Z,1.11
2023-03-06T06:41:42.595Z,1.21
2023-03-06T06:44:15.517Z,1.10
2023-03-06T06:49:32.075Z,0.99
2023-03-06T06:51:58.850Z,0.87
2023-03-06T06:54:25.750Z,0.91
2023-03-06T06:56:52.280Z,0.76
2023-03-06T06:59:19.049Z,0.63
2023-03-06T07:01:45.551Z,0.75
2023-03-06T07:04:15.749Z,0.65
2023-03-06T07:06:42.794Z,0.74
2023-03-06T07:09:09.526Z,0.77
2023-03-06T07:11:37.616Z,0.80
2023-03-06T07:14:04.133Z,0.80
2023-03-06T07:16:30.614Z,0.78
2023-03-06T07:18:57.031Z,0.69
2023-03-06T07:21:23.723Z,0.69
2023-03-06T07:23:50.306Z,0.81
2023-03-06T07:26:16.784Z,0.63
2023-03-06T07:28:52.326Z,0.82
2023-03-06T07:31:22.067Z,0.90
2023-03-06T07:33:53.321Z,0.77
2023-03-06T07:36:20.674Z,0.81
2023-03-06T07:38:47.677Z,0.89
2023-03-06T07:41:16.295Z,0.63
2023-03-06T07:43:44.755Z,0.80
2023-03-06T07:46:12.792Z,0.64
2023-03-06T07:48:40.185Z,0.94
2023-03-06T07:51:12.167Z,0.96
2023-03-06T07:53:38.705Z,1.11
2023-03-06T07:56:08.876Z,0.88
2023-03-06T07:58:36.489Z,0.96
2023-03-06T08:01:05.571Z,1.22
2023-03-06T08:03:32.514Z,1.28
2023-03-06T08:06:06.352Z,1.23
2023-03-06T08:08:34.748Z,1.37
2023-03-06T08:11:01.334Z,1.51
2023-03-06T08:13:27.892Z,1.38
2023-03-06T08:15:54.695Z,1.67
2023-03-06T08:18:21.176Z,1.66
2023-03-06T08:20:47.592Z,1.68
2023-03-06T08:23:14.145Z,1.88
2023-03-06T08:25:40.550Z,2.06
2023-03-06T08:28:07.597Z,2.10
2023-03-06T08:30:34.319Z,2.05
2023-03-06T08:33:01.314Z,2.00
2023-03-06T08:35:27.919Z,1.99
2023-03-06T08:37:54.422Z,1.95
2023-03-06T08:40:20.924Z,1.64
2023-03-06T08:42:48.185Z,1.84
2023-03-06T08:45:17.857Z,1.47
2023-03-06T08:47:44.328Z,1.79
2023-03-06T08:50:11.535Z,1.93
2023-03-06T08:52:38.258Z,2.20
2023-03-06T08:55:05.212Z,2.22
2023-03-06T08:57:31.935Z,2.39
2023-03-06T08:59:58.416Z,2.32
2023-03-06T09:02:25.079Z,2.50
2023-03-06T09:04:51.606Z,2.26
2023-03-06T09:07:18.073Z,2.38
2023-03-06T09:09:44.614Z,2.09
2023-03-06T09:12:11.088Z,2.48
2023-03-06T09:14:37.570Z,2.70
2023-03-06T09:17:04.066Z,2.73
2023-03-06T09:19:30.545Z,2.95
2023-03-06T09:21:57.908Z,3.01
2023-03-06T09:24:24.429Z,2.97
2023-03-06T09:26:51.819Z,2.57
2023-03-06T09:29:18.686Z,2.82
2023-03-06T09:31:45.887Z,3.12
2023-03-06T09:34:12.501Z,3.10
2023-03-06T09:36:55.037Z,3.10
2023-03-06T09:39:23.430Z,2.85
2023-03-06T09:41:50.806Z,2.75
2023-03-06T09:44:21.574Z,2.71
2023-03-06T09:47:01.161Z,2.96
2023-03-06T09:49:49.480Z,3.12
2023-03-06T09:52:43.507Z,3.29
2023-03-06T09:55:10.296Z,3.46
2023-03-06T09:57:42.533Z,3.47
2023-03-06T10:00:15.287Z,3.64
2023-03-06T10:02:49.452Z,4.66
2023-03-06T10:05:28.737Z,5.07
2023-03-06T10:08:03.251Z,6.00
2023-03-06T10:10:51.383Z,5.31
2023-03-06T10:13:36.743Z,5.02
2023-03-06T10:16:18.538Z,4.55
2023-03-06T10:18:45.221Z,4.06
2023-03-06T10:21:29.663Z,4.18
2023-03-06T10:24:15.089Z,4.66
2023-03-06T10:27:21.638Z,6.84
2023-03-06T10:30:02.620Z,7.78
2023-03-06T10:32:48.276Z,7.92
2023-03-06T10:35:19.242Z,10.22
2023-03-06T10:37:46.820Z,11.34
2023-03-06T10:40:17.242Z,10.03
2023-03-06T10:42:43.704Z,8.41
2023-03-06T10:45:15.684Z,7.23
2023-03-06T10:47:44.099Z,6.35
2023-03-06T10:50:23.280Z,5.79
2023-03-06T10:53:09.095Z,5.29
2023-03-06T10:55:37.705Z,5.08
2023-03-06T10:58:19.519Z,4.84
2023-03-06T11:00:46.363Z,5.25
2023-03-06T11:03:24.086Z,8.16
2023-03-06T11:06:00.050Z,9.85
2023-03-06T11:08:26.509Z,11.05
2023-03-06T11:11:02.722Z,12.58
2023-03-06T11:13:32.496Z,12.08
2023-03-06T11:16:02.998Z,12.92
2023-03-06T11:18:36.121Z,13.60
2023-03-06T11:21:07.268Z,12.71
2023-03-06T11:23:47.345Z,10.67
2023-03-06T11:26:17.129Z,9.36
2023-03-06T11:29:22.247Z,8.77
2023-03-06T11:31:54.351Z,8.22
2023-03-06T11:34:28.704Z,7.65
2023-03-06T11:36:55.254Z,7.92
2023-03-06T11:39:25.226Z,10.35
2023-03-06T11:42:19.740Z,12.30
2023-03-06T11:45:02.920Z,13.76
2023-03-06T11:47:36.305Z,13.80
2023-03-06T11:50:21.469Z,14.34
2023-03-06T11:53:00.421Z,14.72
2023-03-06T11:55:52.682Z,14.64
2023-03-06T11:58:46.335Z,14.76
2023-03-06T12:01:29.294Z,15.12
2023-03-06T12:04:23.105Z,16.01
2023-03-06T12:07:07.976Z,16.39
2023-03-06T12:09:46.888Z,14.37
2023-03-06T12:12:27.205Z,11.50
2023-03-06T12:15:31.564Z,10.37
2023-03-06T12:18:16.644Z,10.62
2023-03-06T12:20:53.965Z,10.69
2023-03-06T12:23:41.961Z,10.78
2023-03-06T12:26:08.347Z,10.53
2023-03-06T12:28:53.620Z,11.11
2023-03-06T12:31:28.651Z,10.53
2023-03-06T12:34:06.004Z,10.15
2023-03-06T12:36:46.952Z,9.53
2023-03-06T12:39:25.948Z,8.99
2023-03-06T12:42:17.756Z,8.66
2023-03-06T12:45:17.480Z,8.16
2023-03-06T12:47:47.528Z,8.18
2023-03-06T12:50:44.584Z,8.10
2023-03-06T12:53:28.774Z,7.84
2023-03-06T12:55:57.455Z,7.88
2023-03-06T12:58:29.924Z,7.71
2023-03-06T13:01:30.666Z,7.65
2023-03-06T13:04:30.981Z,7.97
2023-03-06T13:07:06.977Z,9.26
2023-03-06T13:10:10.970Z,9.52
2023-03-06T13:12:50.190Z,9.96
2023-03-06T13:15:35.271Z,10.73
2023-03-06T13:18:21.450Z,11.41
2023-03-06T13:20:52.700Z,10.69
2023-03-06T13:23:38.334Z,10.20
2023-03-06T13:26:09.256Z,9.56
2023-03-06T13:28:50.630Z,8.82
2023-03-06T13:31:49.318Z,8.81
2023-03-06T13:34:36.036Z,8.64
2023-03-06T13:37:18.361Z,8.52
2023-03-06T13:39:58.596Z,8.70
2023-03-06T13:42:34.008Z,9.19
2023-03-06T13:45:08.305Z,9.73
2023-03-06T13:48:09.684Z,10.16
2023-03-06T13:50:36.001Z,10.63
2023-03-06T13:53:31.378Z,10.88
2023-03-06T13:56:06.447Z,11.36
2023-03-06T13:58:45.069Z,11.51
2023-03-06T14:01:16.391Z,11.43
2023-03-06T14:04:11.669Z,11.65
2023-03-06T14:06:50.177Z,11.92
2023-03-06T14:09:44.863Z,12.16
2023-03-06T14:12:26.444Z,12.31
2023-03-06T14:14:56.788Z,11.94
2023-03-06T14:17:35.353Z,10.66
2023-03-06T14:20:14.172Z,9.63
2023-03-06T14:22:40.881Z,8.94
2023-03-06T14:25:28.534Z,8.32
2023-03-06T14:27:58.322Z,7.74
2023-03-06T14:30:32.220Z,7.50
2023-03-06T14:32:59.097Z,7.29
2023-03-06T14:35:32.038Z,7.12
2023-03-06T14:38:06.113Z,7.12
2023-03-06T14:40:42.675Z,7.25
2023-03-06T14:43:29.327Z,6.98
2023-03-06T14:46:00.725Z,8.17
2023-03-06T14:48:48.557Z,9.14
2023-03-06T14:51:22.213Z,9.23
2023-03-06T14:53:54.476Z,9.64
2023-03-06T14:56:26.069Z,9.76
2023-03-06T14:58:59.892Z,9.39
2023-03-06T15:01:41.295Z,9.39
2023-03-06T15:04:36.615Z,9.72
2023-03-06T15:07:07.882Z,10.08
2023-03-06T15:09:36.699Z,10.13
2023-03-06T15:12:21.733Z,9.97
2023-03-06T15:14:57.086Z,9.71
2023-03-06T15:17:32.804Z,10.11
2023-03-06T15:20:00.356Z,10.25
2023-03-06T15:22:28.824Z,10.17
2023-03-06T15:25:20.880Z,10.15
2023-03-06T15:27:50.242Z,10.16
2023-03-06T15:30:29.270Z,10.29
2023-03-06T15:33:19.870Z,10.04
2023-03-06T15:35:57.917Z,9.78
2023-03-06T15:38:28.802Z,10.19
2023-03-06T15:40:57.649Z,10.79
2023-03-06T15:43:24.355Z,11.04
2023-03-06T15:45:57.647Z,10.97
2023-03-06T15:48:24.309Z,10.31
2023-03-06T15:50:50.976Z,9.79
2023-03-06T15:53:17.463Z,9.52
2023-03-06T15:55:44.297Z,9.11
2023-03-06T15:58:17.627Z,8.72
2023-03-06T16:00:46.981Z,8.74
2023-03-06T16:03:13.435Z,8.19
2023-03-06T16:05:40.085Z,8.07
2023-03-06T16:08:07.352Z,7.63
2023-03-06T16:10:37.490Z,7.31
2023-03-06T16:13:08.494Z,7.17
2023-03-06T16:15:41.068Z,7.02
2023-03-06T16:18:11.842Z,6.80
2023-03-06T16:20:38.550Z,6.33
2023-03-06T16:23:08.179Z,6.13
2023-03-06T16:25:35.226Z,5.87
2023-03-06T17:32:44.147Z,4.00
2023-03-06T19:08:10.560Z,2.86
2023-03-06T19:10:38.874Z,2.86
2023-03-06T19:13:06.003Z,2.84
2023-03-06T19:15:32.916Z,2.84
2023-03-06T19:19:21.333Z,2.75
2023-03-06T19:20:53.644Z,2.40
2023-03-06T19:23:26.800Z,2.60
2023-03-06T19:25:57.650Z,2.25
2023-03-06T19:28:24.387Z,2.00
2023-03-06T19:31:07.162Z,2.42
2023-03-06T19:33:51.484Z,2.32
2023-03-06T20:21:46.653Z,2.83
2023-03-06T20:24:52.158Z,2.09
2023-03-06T20:30:58.053Z,2.97
2023-03-06T20:39:24.496Z,2.88
2023-03-06T20:41:54.337Z,2.46
2023-03-06T20:44:35.853Z,2.64
2023-03-06T20:47:09.060Z,2.78
2023-03-06T20:49:36.621Z,2.72
2023-03-06T20:52:03.622Z,3.08
2023-03-06T20:54:30.187Z,2.94
2023-03-06T20:56:56.793Z,2.99
2023-03-06T21:02:08.587Z,3.00
2023-03-06T21:07:26.474Z,2.28
2023-03-06T21:13:04.192Z,2.78
2023-03-06T21:16:19.710Z,2.67
2023-03-06T21:30:23.517Z,2.56
2023-03-06T21:32:52.085Z,2.81
2023-03-06T21:35:19.728Z,2.76
2023-03-06T21:37:46.639Z,3.24
2023-03-06T21:50:21.150Z,2.47
2023-03-06T21:53:55.615Z,2.31
2023-03-06T21:56:30.271Z,2.95
2023-03-06T22:12:13.801Z,2.67
2023-03-06T23:10:01.598Z,2.07
2023-03-06T23:55:10.987Z,1.77
